sensor_id;sensor_type;location;lat;lon;timestamp;P1;durP1;ratioP1;P2;durP2;ratioP2
7473;SDS011;3778;42.572;23.426;2023-04-03T00:01:33;2.83;;;2.00;;
7473;SDS011;3778;42.572;23.426;2023-04-03T00:04:03;2.63;;;2.07;;
7473;SDS011;3778;42.572;23.426;2023-04-03T00:06:30;2.20;;;1.83;;
7473;SDS011;3778;42.572;23.426;2023-04-03T00:08:59;3.30;;;1.80;;
7473;SDS011;3778;42.572;23.426;2023-04-03T00:11:25;3.13;;;1.87;;
7473;SDS011;3778;42.572;23.426;2023-04-03T00:13:52;3.43;;;2.27;;
7473;SDS011;3778;42.572;23.426;2023-04-03T00:16:19;1.80;;;1.70;;
7473;SDS011;3778;42.572;23.426;2023-04-03T00:18:46;2.90;;;2.17;;
7473;SDS011;3778;42.572;23.426;2023-04-03T00:21:13;2.20;;;1.80;;
7473;SDS011;3778;42.572;23.426;2023-04-03T00:23:40;4.40;;;2.07;;
7473;SDS011;3778;42.572;23.426;2023-04-03T00:26:08;2.87;;;2.10;;
7473;SDS011;3778;42.572;23.426;2023-04-03T00:28:35;2.43;;;1.93;;
7473;SDS011;3778;42.572;23.426;2023-04-03T00:31:02;2.53;;;2.00;;
7473;SDS011;3778;42.572;23.426;2023-04-03T00:33:29;5.77;;;1.93;;
7473;SDS011;3778;42.572;23.426;2023-04-03T00:35:56;1.70;;;1.60;;
7473;SDS011;3778;42.572;23.426;2023-04-03T00:38:22;2.63;;;1.70;;
7473;SDS011;3778;42.572;23.426;2023-04-03T00:40:49;1.90;;;1.70;;
7473;SDS011;3778;42.572;23.426;2023-04-03T00:43:18;2.67;;;2.03;;
7473;SDS011;3778;42.572;23.426;2023-04-03T00:45:47;4.73;;;2.97;;
7473;SDS011;3778;42.572;23.426;2023-04-03T00:48:15;1.93;;;1.70;;
7473;SDS011;3778;42.572;23.426;2023-04-03T00:50:46;2.70;;;1.87;;
7473;SDS011;3778;42.572;23.426;2023-04-03T00:53:14;1.93;;;1.57;;
7473;SDS011;3778;42.572;23.426;2023-04-03T00:55:46;3.93;;;1.77;;
7473;SDS011;3778;42.572;23.426;2023-04-03T00:58:15;2.60;;;1.77;;
7473;SDS011;3778;42.572;23.426;2023-04-03T01:00:45;4.27;;;1.93;;
7473;SDS011;3778;42.572;23.426;2023-04-03T01:03:18;3.43;;;2.17;;
7473;SDS011;3778;42.572;23.426;2023-04-03T01:05:45;3.27;;;2.13;;
7473;SDS011;3778;42.572;23.426;2023-04-03T01:08:12;1.90;;;1.63;;
7473;SDS011;3778;42.572;23.426;2023-04-03T01:10:38;1.97;;;1.77;;
7473;SDS011;3778;42.572;23.426;2023-04-03T01:13:17;7.43;;;1.80;;
7473;SDS011;3778;42.572;23.426;2023-04-03T01:15:47;4.30;;;1.97;;
7473;SDS011;3778;42.572;23.426;2023-04-03T01:18:14;2.00;;;1.80;;
7473;SDS011;3778;42.572;23.426;2023-04-03T01:24:00;4.27;;;2.43;;
7473;SDS011;3778;42.572;23.426;2023-04-03T01:26:40;4.23;;;2.17;;
7473;SDS011;3778;42.572;23.426;2023-04-03T01:29:07;5.17;;;2.30;;
7473;SDS011;3778;42.572;23.426;2023-04-03T01:31:49;3.07;;;2.27;;
7473;SDS011;3778;42.572;23.426;2023-04-03T01:34:17;3.90;;;2.30;;
7473;SDS011;3778;42.572;23.426;2023-04-03T01:36:43;2.07;;;1.90;;
7473;SDS011;3778;42.572;23.426;2023-04-03T01:39:10;2.73;;;2.27;;
7473;SDS011;3778;42.572;23.426;2023-04-03T01:41:37;3.13;;;2.67;;
7473;SDS011;3778;42.572;23.426;2023-04-03T01:44:04;3.10;;;2.00;;
7473;SDS011;3778;42.572;23.426;2023-04-03T01:46:32;5.47;;;2.00;;
7473;SDS011;3778;42.572;23.426;2023-04-03T01:49:00;4.90;;;3.17;;
7473;SDS011;3778;42.572;23.426;2023-04-03T01:51:27;2.50;;;2.00;;
7473;SDS011;3778;42.572;23.426;2023-04-03T01:53:54;3.50;;;2.07;;
7473;SDS011;3778;42.572;23.426;2023-04-03T01:56:20;4.03;;;2.23;;
7473;SDS011;3778;42.572;23.426;2023-04-03T01:58:47;2.17;;;1.97;;
7473;SDS011;3778;42.572;23.426;2023-04-03T02:01:14;2.40;;;2.00;;
7473;SDS011;3778;42.572;23.426;2023-04-03T02:03:41;3.07;;;2.00;;
7473;SDS011;3778;42.572;23.426;2023-04-03T02:06:09;2.33;;;2.03;;
7473;SDS011;3778;42.572;23.426;2023-04-03T02:08:35;9.67;;;3.13;;
7473;SDS011;3778;42.572;23.426;2023-04-03T02:11:02;2.53;;;2.00;;
7473;SDS011;3778;42.572;23.426;2023-04-03T02:13:29;1.93;;;1.83;;
7473;SDS011;3778;42.572;23.426;2023-04-03T02:15:56;4.13;;;2.50;;
7473;SDS011;3778;42.572;23.426;2023-04-03T02:18:22;1.97;;;1.77;;
7473;SDS011;3778;42.572;23.426;2023-04-03T02:20:49;2.13;;;2.03;;
7473;SDS011;3778;42.572;23.426;2023-04-03T02:23:17;3.00;;;2.23;;
7473;SDS011;3778;42.572;23.426;2023-04-03T02:25:44;2.17;;;1.77;;
7473;SDS011;3778;42.572;23.426;2023-04-03T02:28:10;3.40;;;2.27;;
7473;SDS011;3778;42.572;23.426;2023-04-03T02:30:37;4.00;;;1.87;;
7473;SDS011;3778;42.572;23.426;2023-04-03T02:33:04;2.30;;;2.10;;
7473;SDS011;3778;42.572;23.426;2023-04-03T02:35:30;3.93;;;2.50;;
7473;SDS011;3778;42.572;23.426;2023-04-03T02:37:57;3.67;;;2.17;;
7473;SDS011;3778;42.572;23.426;2023-04-03T02:40:25;4.60;;;2.90;;
7473;SDS011;3778;42.572;23.426;2023-04-03T02:42:52;5.83;;;2.73;;
7473;SDS011;3778;42.572;23.426;2023-04-03T02:45:18;5.30;;;2.90;;
7473;SDS011;3778;42.572;23.426;2023-04-03T02:47:45;2.40;;;1.73;;
7473;SDS011;3778;42.572;23.426;2023-04-03T02:50:12;4.33;;;2.27;;
7473;SDS011;3778;42.572;23.426;2023-04-03T02:52:39;3.40;;;2.30;;
7473;SDS011;3778;42.572;23.426;2023-04-03T02:55:06;3.30;;;2.00;;
7473;SDS011;3778;42.572;23.426;2023-04-03T02:57:35;3.37;;;1.87;;
7473;SDS011;3778;42.572;23.426;2023-04-03T03:00:02;1.80;;;1.70;;
7473;SDS011;3778;42.572;23.426;2023-04-03T03:02:29;2.70;;;2.20;;
7473;SDS011;3778;42.572;23.426;2023-04-03T03:04:56;2.20;;;2.00;;
7473;SDS011;3778;42.572;23.426;2023-04-03T03:07:22;3.50;;;2.10;;
7473;SDS011;3778;42.572;23.426;2023-04-03T03:09:49;5.20;;;2.60;;
7473;SDS011;3778;42.572;23.426;2023-04-03T03:12:16;3.23;;;1.93;;
7473;SDS011;3778;42.572;23.426;2023-04-03T03:14:47;2.90;;;2.23;;
7473;SDS011;3778;42.572;23.426;2023-04-03T03:17:14;2.47;;;2.17;;
7473;SDS011;3778;42.572;23.426;2023-04-03T03:19:41;2.53;;;2.33;;
7473;SDS011;3778;42.572;23.426;2023-04-03T03:22:08;4.83;;;2.37;;
7473;SDS011;3778;42.572;23.426;2023-04-03T03:24:35;2.13;;;1.80;;
7473;SDS011;3778;42.572;23.426;2023-04-03T03:27:02;2.70;;;2.03;;
7473;SDS011;3778;42.572;23.426;2023-04-03T03:29:28;3.00;;;2.00;;
7473;SDS011;3778;42.572;23.426;2023-04-03T03:31:56;1.77;;;1.57;;
7473;SDS011;3778;42.572;23.426;2023-04-03T03:34:23;4.23;;;2.67;;
7473;SDS011;3778;42.572;23.426;2023-04-03T03:36:50;2.50;;;1.90;;
7473;SDS011;3778;42.572;23.426;2023-04-03T03:39:16;2.40;;;1.97;;
7473;SDS011;3778;42.572;23.426;2023-04-03T03:41:43;2.97;;;1.97;;
7473;SDS011;3778;42.572;23.426;2023-04-03T03:44:10;2.60;;;1.83;;
7473;SDS011;3778;42.572;23.426;2023-04-03T03:46:37;2.87;;;1.90;;
7473;SDS011;3778;42.572;23.426;2023-04-03T03:49:05;4.17;;;2.40;;
7473;SDS011;3778;42.572;23.426;2023-04-03T03:51:31;3.70;;;2.23;;
7473;SDS011;3778;42.572;23.426;2023-04-03T03:53:58;2.30;;;2.10;;
7473;SDS011;3778;42.572;23.426;2023-04-03T03:56:25;2.60;;;2.03;;
7473;SDS011;3778;42.572;23.426;2023-04-03T03:58:52;3.97;;;3.00;;
7473;SDS011;3778;42.572;23.426;2023-04-03T04:01:18;7.63;;;2.50;;
7473;SDS011;3778;42.572;23.426;2023-04-03T04:03:47;2.27;;;2.10;;
7473;SDS011;3778;42.572;23.426;2023-04-03T04:06:15;3.23;;;2.20;;
7473;SDS011;3778;42.572;23.426;2023-04-03T04:08:42;2.10;;;1.90;;
7473;SDS011;3778;42.572;23.426;2023-04-03T04:11:09;3.13;;;2.13;;
7473;SDS011;3778;42.572;23.426;2023-04-03T04:13:36;2.40;;;1.90;;
7473;SDS011;3778;42.572;23.426;2023-04-03T04:16:02;5.03;;;2.10;;
7473;SDS011;3778;42.572;23.426;2023-04-03T04:18:30;2.97;;;1.97;;
7473;SDS011;3778;42.572;23.426;2023-04-03T04:20:57;3.87;;;2.30;;
7473;SDS011;3778;42.572;23.426;2023-04-03T04:23:25;2.83;;;2.10;;
7473;SDS011;3778;42.572;23.426;2023-04-03T04:25:51;3.23;;;2.03;;
7473;SDS011;3778;42.572;23.426;2023-04-03T04:28:18;2.00;;;1.80;;
7473;SDS011;3778;42.572;23.426;2023-04-03T04:30:45;4.10;;;2.00;;
7473;SDS011;3778;42.572;23.426;2023-04-03T04:33:12;2.70;;;2.20;;
7473;SDS011;3778;42.572;23.426;2023-04-03T04:35:41;2.87;;;2.40;;
7473;SDS011;3778;42.572;23.426;2023-04-03T04:38:08;1.83;;;1.60;;
7473;SDS011;3778;42.572;23.426;2023-04-03T04:40:36;1.87;;;1.70;;
7473;SDS011;3778;42.572;23.426;2023-04-03T04:43:03;4.70;;;2.03;;
7473;SDS011;3778;42.572;23.426;2023-04-03T04:45:29;2.23;;;1.93;;
7473;SDS011;3778;42.572;23.426;2023-04-03T04:47:56;1.63;;;1.47;;
7473;SDS011;3778;42.572;23.426;2023-04-03T04:50:23;2.13;;;1.60;;
7473;SDS011;3778;42.572;23.426;2023-04-03T04:52:50;3.07;;;2.10;;
7473;SDS011;3778;42.572;23.426;2023-04-03T04:55:16;2.10;;;1.87;;
7473;SDS011;3778;42.572;23.426;2023-04-03T04:57:44;4.70;;;2.13;;
7473;SDS011;3778;42.572;23.426;2023-04-03T05:00:12;2.20;;;2.00;;
7473;SDS011;3778;42.572;23.426;2023-04-03T05:02:39;2.87;;;2.17;;
7473;SDS011;3778;42.572;23.426;2023-04-03T05:05:06;2.87;;;1.90;;
7473;SDS011;3778;42.572;23.426;2023-04-03T05:07:34;4.23;;;2.43;;
7473;SDS011;3778;42.572;23.426;2023-04-03T05:10:01;3.07;;;2.30;;
7473;SDS011;3778;42.572;23.426;2023-04-03T05:12:28;2.37;;;2.10;;
7473;SDS011;3778;42.572;23.426;2023-04-03T05:14:56;3.40;;;1.80;;
7473;SDS011;3778;42.572;23.426;2023-04-03T05:17:23;5.70;;;2.17;;
7473;SDS011;3778;42.572;23.426;2023-04-03T05:19:50;2.27;;;2.00;;
7473;SDS011;3778;42.572;23.426;2023-04-03T05:22:16;2.53;;;2.00;;
7473;SDS011;3778;42.572;23.426;2023-04-03T05:24:43;3.70;;;2.47;;
7473;SDS011;3778;42.572;23.426;2023-04-03T05:27:10;2.53;;;1.70;;
7473;SDS011;3778;42.572;23.426;2023-04-03T05:29:37;2.53;;;2.00;;
7473;SDS011;3778;42.572;23.426;2023-04-03T05:32:05;1.63;;;1.50;;
7473;SDS011;3778;42.572;23.426;2023-04-03T05:34:31;3.13;;;2.17;;
7473;SDS011;3778;42.572;23.426;2023-04-03T05:36:58;2.20;;;1.93;;
7473;SDS011;3778;42.572;23.426;2023-04-03T05:39:25;3.27;;;2.07;;
7473;SDS011;3778;42.572;23.426;2023-04-03T05:41:52;4.10;;;2.50;;
7473;SDS011;3778;42.572;23.426;2023-04-03T05:44:18;3.47;;;2.33;;
7473;SDS011;3778;42.572;23.426;2023-04-03T05:46:45;4.77;;;2.80;;
7473;SDS011;3778;42.572;23.426;2023-04-03T05:49:13;2.60;;;2.07;;
7473;SDS011;3778;42.572;23.426;2023-04-03T05:51:40;2.20;;;1.83;;
7473;SDS011;3778;42.572;23.426;2023-04-03T05:54:09;2.70;;;2.00;;
7473;SDS011;3778;42.572;23.426;2023-04-03T05:56:40;2.57;;;2.00;;
7473;SDS011;3778;42.572;23.426;2023-04-03T05:59:06;4.30;;;2.60;;
7473;SDS011;3778;42.572;23.426;2023-04-03T06:01:33;2.53;;;2.30;;
7473;SDS011;3778;42.572;23.426;2023-04-03T06:04:00;3.00;;;2.13;;
7473;SDS011;3778;42.572;23.426;2023-04-03T06:09:13;2.23;;;1.93;;
7473;SDS011;3778;42.572;23.426;2023-04-03T06:11:39;3.40;;;2.10;;
7473;SDS011;3778;42.572;23.426;2023-04-03T06:14:06;2.97;;;2.10;;
7473;SDS011;3778;42.572;23.426;2023-04-03T06:16:33;2.30;;;1.83;;
7473;SDS011;3778;42.572;23.426;2023-04-03T06:19:01;3.17;;;2.43;;
7473;SDS011;3778;42.572;23.426;2023-04-03T06:21:27;2.50;;;1.87;;
7473;SDS011;3778;42.572;23.426;2023-04-03T06:23:56;5.93;;;2.03;;
7473;SDS011;3778;42.572;23.426;2023-04-03T06:26:23;2.13;;;1.90;;
7473;SDS011;3778;42.572;23.426;2023-04-03T06:28:50;2.90;;;1.93;;
7473;SDS011;3778;42.572;23.426;2023-04-03T06:31:16;4.53;;;2.40;;
7473;SDS011;3778;42.572;23.426;2023-04-03T06:33:43;2.20;;;1.80;;
7473;SDS011;3778;42.572;23.426;2023-04-03T06:36:10;2.53;;;1.77;;
7473;SDS011;3778;42.572;23.426;2023-04-03T06:38:37;2.80;;;1.97;;
7473;SDS011;3778;42.572;23.426;2023-04-03T06:41:05;2.43;;;2.13;;
7473;SDS011;3778;42.572;23.426;2023-04-03T06:43:32;2.33;;;2.03;;
7473;SDS011;3778;42.572;23.426;2023-04-03T06:45:59;3.43;;;2.10;;
7473;SDS011;3778;42.572;23.426;2023-04-03T06:48:26;6.47;;;2.30;;
7473;SDS011;3778;42.572;23.426;2023-04-03T06:50:52;3.17;;;2.10;;
7473;SDS011;3778;42.572;23.426;2023-04-03T06:53:20;3.27;;;2.10;;
7473;SDS011;3778;42.572;23.426;2023-04-03T06:55:46;2.93;;;2.00;;
7473;SDS011;3778;42.572;23.426;2023-04-03T06:58:14;3.73;;;2.20;;
7473;SDS011;3778;42.572;23.426;2023-04-03T07:00:42;2.13;;;1.77;;
7473;SDS011;3778;42.572;23.426;2023-04-03T07:03:09;3.30;;;1.93;;
7473;SDS011;3778;42.572;23.426;2023-04-03T07:05:35;4.97;;;1.80;;
7473;SDS011;3778;42.572;23.426;2023-04-03T07:08:02;2.33;;;1.97;;
7473;SDS011;3778;42.572;23.426;2023-04-03T07:10:29;3.40;;;2.10;;
7473;SDS011;3778;42.572;23.426;2023-04-03T07:12:56;3.50;;;2.27;;
7473;SDS011;3778;42.572;23.426;2023-04-03T07:15:24;2.70;;;1.93;;
7473;SDS011;3778;42.572;23.426;2023-04-03T07:17:51;2.60;;;2.07;;
7473;SDS011;3778;42.572;23.426;2023-04-03T07:20:18;3.47;;;2.27;;
7473;SDS011;3778;42.572;23.426;2023-04-03T07:22:45;2.80;;;1.90;;
7473;SDS011;3778;42.572;23.426;2023-04-03T07:25:11;2.70;;;2.10;;
7473;SDS011;3778;42.572;23.426;2023-04-03T07:27:38;3.70;;;2.90;;
7473;SDS011;3778;42.572;23.426;2023-04-03T07:30:05;2.83;;;2.33;;
7473;SDS011;3778;42.572;23.426;2023-04-03T07:32:34;4.37;;;1.87;;
7473;SDS011;3778;42.572;23.426;2023-04-03T07:35:02;2.40;;;1.87;;
7473;SDS011;3778;42.572;23.426;2023-04-03T07:37:29;2.90;;;1.60;;
7473;SDS011;3778;42.572;23.426;2023-04-03T07:39:57;7.90;;;1.67;;
7473;SDS011;3778;42.572;23.426;2023-04-03T07:42:24;2.17;;;1.70;;
7473;SDS011;3778;42.572;23.426;2023-04-03T07:44:52;2.87;;;1.70;;
7473;SDS011;3778;42.572;23.426;2023-04-03T07:47:19;2.37;;;1.60;;
7473;SDS011;3778;42.572;23.426;2023-04-03T07:49:47;2.60;;;1.80;;
7473;SDS011;3778;42.572;23.426;2023-04-03T07:52:14;3.57;;;1.83;;
7473;SDS011;3778;42.572;23.426;2023-04-03T07:54:41;3.00;;;1.77;;
7473;SDS011;3778;42.572;23.426;2023-04-03T07:57:08;2.43;;;1.83;;
7473;SDS011;3778;42.572;23.426;2023-04-03T07:59:35;2.17;;;1.50;;
7473;SDS011;3778;42.572;23.426;2023-04-03T08:02:01;1.80;;;1.47;;
7473;SDS011;3778;42.572;23.426;2023-04-03T08:04:30;3.27;;;2.00;;
7473;SDS011;3778;42.572;23.426;2023-04-03T08:06:58;1.77;;;1.67;;
7473;SDS011;3778;42.572;23.426;2023-04-03T08:09:24;2.27;;;1.50;;
7473;SDS011;3778;42.572;23.426;2023-04-03T08:11:51;3.30;;;2.00;;
7473;SDS011;3778;42.572;23.426;2023-04-03T08:14:18;4.93;;;2.63;;
7473;SDS011;3778;42.572;23.426;2023-04-03T08:16:46;8.20;;;3.40;;
7473;SDS011;3778;42.572;23.426;2023-04-03T08:19:13;5.87;;;3.40;;
7473;SDS011;3778;42.572;23.426;2023-04-03T08:21:43;3.03;;;2.73;;
7473;SDS011;3778;42.572;23.426;2023-04-03T08:24:11;7.10;;;4.27;;
7473;SDS011;3778;42.572;23.426;2023-04-03T08:26:38;5.83;;;3.97;;
7473;SDS011;3778;42.572;23.426;2023-04-03T08:29:04;7.27;;;4.60;;
7473;SDS011;3778;42.572;23.426;2023-04-03T08:31:31;5.17;;;4.10;;
7473;SDS011;3778;42.572;23.426;2023-04-03T08:33:58;12.73;;;4.10;;
7473;SDS011;3778;42.572;23.426;2023-04-03T08:36:26;7.27;;;4.20;;
7473;SDS011;3778;42.572;23.426;2023-04-03T08:38:54;16.60;;;4.90;;
7473;SDS011;3778;42.572;23.426;2023-04-03T08:41:26;8.23;;;4.20;;
7473;SDS011;3778;42.572;23.426;2023-04-03T08:43:59;9.53;;;3.80;;
7473;SDS011;3778;42.572;23.426;2023-04-03T08:46:35;7.10;;;4.13;;
7473;SDS011;3778;42.572;23.426;2023-04-03T08:49:11;7.07;;;4.60;;
7473;SDS011;3778;42.572;23.426;2023-04-03T08:51:47;7.63;;;4.53;;
7473;SDS011;3778;42.572;23.426;2023-04-03T08:54:20;7.27;;;4.27;;
7473;SDS011;3778;42.572;23.426;2023-04-03T08:56:53;10.73;;;4.50;;
7473;SDS011;3778;42.572;23.426;2023-04-03T08:59:25;8.93;;;5.40;;
7473;SDS011;3778;42.572;23.426;2023-04-03T09:01:56;6.80;;;4.50;;
7473;SDS011;3778;42.572;23.426;2023-04-03T09:04:27;10.93;;;6.23;;
